Parma — V2OZ9 — position and weather

sailwx.info

Track history (hours):
 
Tides and Currents Weather Stations Pressure Air Temp Water Temp Dewpoint Dewpoint Depression Visibility Wind Speed Wind Dir Waves Ship Positions

Parma

Last reported at 2017-Jan-18 15:34 UTC. Time now 2017-Jan-19 02:12 UTC.
Position N 35°55' W 005°18'.

MMSI: 279073176.

Date/timePositionNaut miles runAvg speedWind from/ knotsBaromVisibWave heightAir tempDewpointWater temp
2017-Jan-18 15:34N 35°55' W 005°18'2 1.6
2017-Jan-18 14:33N 35°54' W 005°19'0 0.0
2017-Jan-18 13:33N 35°54' W 005°19'0 0.0
2017-Jan-18 12:33N 35°54' W 005°19'0 0.0
2017-Jan-18 11:33N 35°54' W 005°19'1 0.5
2017-Jan-18 10:34N 35°54' W 005°19'2 2.1
2017-Jan-18 09:33N 35°55' W 005°20'0 0.2
2017-Jan-18 08:33N 35°56' W 005°20'4 4.3
2017-Jan-18 07:33N 35°57' W 005°25'8 8.4
2017-Jan-18 06:33N 35°55' W 005°35'210 9.4
2017-Jan-17 08:22N 37°09' W 009°39'30 9.8
2017-Jan-17 05:17N 37°39' W 009°48'810.2
2017-Jan-17 04:33N 37°46' W 009°50'1010.1
2017-Jan-17 03:33N 37°56' W 009°53'1110.5
2017-Jan-17 02:32N 38°06' W 009°56'1010.5
2017-Jan-17 01:33N 38°16' W 009°59'1010.4
2017-Jan-17 00:34N 38°26' W 010°02'1210.2
2017-Jan-16 23:21N 38°38' W 010°05'810.1
2017-Jan-16 22:33N 38°46' W 010°06'2210.5
2017-Jan-16 20:25N 39°09' W 010°06'  
2017-Jan-13 14:33N 50°22' W 003°28'5 4.5
2017-Jan-13 13:31N 50°26' W 003°29'0 0.0
2017-Jan-13 12:31N 50°26' W 003°29'0 0.0
2017-Jan-13 11:31N 50°26' W 003°29'0 0.0
2017-Jan-13 10:31N 50°26' W 003°29'0 0.1
2017-Jan-13 09:31N 50°26' W 003°29'0 0.1
2017-Jan-13 08:31N 50°27' W 003°29'0 0.0
2017-Jan-13 07:31N 50°27' W 003°29'0 0.0
2017-Jan-13 06:31N 50°26' W 003°29'0 0.0
2017-Jan-13 05:31N 50°26' W 003°29'0 0.1
2017-Jan-13 04:31N 50°26' W 003°29'0 0.1
2017-Jan-13 03:31N 50°26' W 003°29'0 0.0
2017-Jan-13 02:31N 50°26' W 003°29'0 0.0
2017-Jan-13 01:31N 50°26' W 003°29'0 0.1
2017-Jan-13 00:31N 50°26' W 003°29'0 0.0
2017-Jan-12 23:31N 50°26' W 003°28'0 0.0
2017-Jan-12 22:28N 50°26' W 003°28'0 0.0
2017-Jan-12 21:31N 50°26' W 003°28'0 0.1
2017-Jan-12 20:31N 50°27' W 003°28'0 0.0
2017-Jan-12 19:31N 50°27' W 003°29'0 0.0
2017-Jan-12 18:31N 50°27' W 003°29'0 0.0
2017-Jan-12 17:31N 50°26' W 003°28'0 0.1
2017-Jan-12 16:31N 50°26' W 003°29'6 5.9
2017-Jan-12 15:33N 50°26' W 003°20'114 8.7
2017-Jan-12 02:24N 50°31' W 000°20'9 9.9
2017-Jan-12 01:31N 50°32' W 000°06'9 9.6
2017-Jan-12 00:33N 50°34' E 000°08'9 9.2
2017-Jan-11 23:33N 50°36' E 000°22'9 8.3
2017-Jan-11 22:32N 50°39' E 000°35'7 7.5
2017-Jan-11 21:33N 50°43' E 000°44'23 9.3
2017-Jan-11 19:04N 50°57' E 001°13'612.4
2017-Jan-11 18:34N 51°01' E 001°21'1313.1
2017-Jan-11 17:33N 51°09' E 001°37'1211.6
2017-Jan-11 16:33N 51°17' E 001°50'10 9.5
2017-Jan-11 15:33N 51°25' E 001°60'9 8.7
2017-Jan-11 14:33N 51°22' E 002°13'7 7.5
2017-Jan-11 13:33N 51°22' E 002°25'8 7.7
2017-Jan-11 12:33N 51°23' E 002°37'7 6.8
2017-Jan-11 11:33N 51°22' E 002°48'8 8.2
2017-Jan-11 10:33N 51°22' E 003°01'8 8.0
2017-Jan-11 09:33N 51°23' E 003°14'9 9.0
2017-Jan-11 08:33N 51°25' E 003°28'14 6.5
2017-Jan-11 06:24N 51°20' E 003°49'1 0.7
2017-Jan-11 05:32N 51°19' E 003°49'3 1.4
2017-Jan-11 03:30N 51°16' E 003°51'0 0.0
2017-Jan-11 02:33N 51°16' E 003°51'0 0.0
2017-Jan-11 01:30N 51°16' E 003°51'0 0.0
2017-Jan-11 00:31N 51°16' E 003°51'0 0.0
2017-Jan-10 21:18N 51°16' E 003°51'0 0.0
2017-Jan-10 20:33N 51°16' E 003°51'0 0.0
2017-Jan-10 19:33N 51°16' E 003°51'0 0.0
2017-Jan-10 18:27N 51°16' E 003°51'0 0.0
2017-Jan-10 16:18N 51°16' E 003°51'0 0.0
2017-Jan-10 15:33N 51°16' E 003°51'0 0.0
2017-Jan-10 14:33N 51°16' E 003°51'0 0.0
2017-Jan-10 13:33N 51°16' E 003°51'0 0.0
2017-Jan-10 12:33N 51°16' E 003°51'0 0.0
2017-Jan-10 11:33N 51°16' E 003°51'0 0.0
2017-Jan-10 10:33N 51°16' E 003°51'0 0.0
2017-Jan-10 09:33N 51°16' E 003°51'0 0.0
2017-Jan-10 08:33N 51°16' E 003°51'0 0.0
2017-Jan-10 07:33N 51°16' E 003°51'0 0.0
2017-Jan-10 06:33N 51°16' E 003°51'0 0.0
2017-Jan-10 05:33N 51°17' E 003°51'3 2.6
2017-Jan-10 04:29N 51°19' E 003°49'0 0.0
2017-Jan-10 03:29N 51°19' E 003°49'0 0.0
2017-Jan-10 02:23N 51°19' E 003°49'0 0.0
2017-Jan-10 01:29N 51°19' E 003°49'0 0.0
2017-Jan-10 00:29N 51°19' E 003°49'0 0.1
2017-Jan-09 23:33N 51°19' E 003°49'1 1.2
2017-Jan-09 22:33N 51°20' E 003°49'8 8.3
2017-Jan-09 21:33N 51°26' E 003°39'1111.3
2017-Jan-09 20:33N 51°24' E 003°22'1111.3
2017-Jan-09 19:33N 51°22' E 003°04'1111.3
2017-Jan-09 18:33N 51°21' E 002°46'10 9.9
2017-Jan-09 17:34N 51°22' E 002°30'9 9.3
2017-Jan-09 16:33N 51°18' E 002°17'9 9.3
2017-Jan-09 15:34N 51°13' E 002°04'9 8.6
2017-Jan-09 14:33N 51°08' E 001°52'9 8.9
2017-Jan-09 13:34N 51°02' E 001°42'10 9.6
2017-Jan-09 12:33N 50°55' E 001°31'67 9.5
2017-Jan-09 05:30N 50°20' E 000°02'99 8.8
2017-Jan-08 18:20N 50°17' W 002°33'810.1
2017-Jan-08 17:33N 50°16' W 002°45'1010.4
2017-Jan-08 16:33N 50°16' W 003°01'1010.4
2017-Jan-08 15:34N 50°13' W 003°17'  
Track history (hours):
 
Tides and Currents Weather Stations Pressure Air Temp Water Temp Dewpoint Dewpoint Depression Visibility Wind Speed Wind Dir Waves Ship Positions

Parma

Last reported at 2017-Jan-18 15:34 UTC. Time now 2017-Jan-19 02:12 UTC.
Position N 35°55' W 005°18'.

MMSI: 279073176.

Date/timePositionNaut miles runAvg speedWind from/ knotsBaromVisibWave heightAir tempDewpointWater temp
2017-Jan-18 15:34N 35°55' W 005°18'2 1.6
2017-Jan-18 14:33N 35°54' W 005°19'0 0.0
2017-Jan-18 13:33N 35°54' W 005°19'0 0.0
2017-Jan-18 12:33N 35°54' W 005°19'0 0.0
2017-Jan-18 11:33N 35°54' W 005°19'1 0.5
2017-Jan-18 10:34N 35°54' W 005°19'2 2.1
2017-Jan-18 09:33N 35°55' W 005°20'0 0.2
2017-Jan-18 08:33N 35°56' W 005°20'4 4.3
2017-Jan-18 07:33N 35°57' W 005°25'8 8.4
2017-Jan-18 06:33N 35°55' W 005°35'210 9.4
2017-Jan-17 08:22N 37°09' W 009°39'30 9.8
2017-Jan-17 05:17N 37°39' W 009°48'810.2
2017-Jan-17 04:33N 37°46' W 009°50'1010.1
2017-Jan-17 03:33N 37°56' W 009°53'1110.5
2017-Jan-17 02:32N 38°06' W 009°56'1010.5
2017-Jan-17 01:33N 38°16' W 009°59'1010.4
2017-Jan-17 00:34N 38°26' W 010°02'1210.2
2017-Jan-16 23:21N 38°38' W 010°05'810.1
2017-Jan-16 22:33N 38°46' W 010°06'2210.5
2017-Jan-16 20:25N 39°09' W 010°06'  
2017-Jan-13 14:33N 50°22' W 003°28'5 4.5
2017-Jan-13 13:31N 50°26' W 003°29'0 0.0
2017-Jan-13 12:31N 50°26' W 003°29'0 0.0
2017-Jan-13 11:31N 50°26' W 003°29'0 0.0
2017-Jan-13 10:31N 50°26' W 003°29'0 0.1
2017-Jan-13 09:31N 50°26' W 003°29'0 0.1
2017-Jan-13 08:31N 50°27' W 003°29'0 0.0
2017-Jan-13 07:31N 50°27' W 003°29'0 0.0
2017-Jan-13 06:31N 50°26' W 003°29'0 0.0
2017-Jan-13 05:31N 50°26' W 003°29'0 0.1
2017-Jan-13 04:31N 50°26' W 003°29'0 0.1
2017-Jan-13 03:31N 50°26' W 003°29'0 0.0
2017-Jan-13 02:31N 50°26' W 003°29'0 0.0
2017-Jan-13 01:31N 50°26' W 003°29'0 0.1
2017-Jan-13 00:31N 50°26' W 003°29'0 0.0
2017-Jan-12 23:31N 50°26' W 003°28'0 0.0
2017-Jan-12 22:28N 50°26' W 003°28'0 0.0
2017-Jan-12 21:31N 50°26' W 003°28'0 0.1
2017-Jan-12 20:31N 50°27' W 003°28'0 0.0
2017-Jan-12 19:31N 50°27' W 003°29'0 0.0
2017-Jan-12 18:31N 50°27' W 003°29'0 0.0
2017-Jan-12 17:31N 50°26' W 003°28'0 0.1
2017-Jan-12 16:31N 50°26' W 003°29'6 5.9
2017-Jan-12 15:33N 50°26' W 003°20'114 8.7
2017-Jan-12 02:24N 50°31' W 000°20'9 9.9
2017-Jan-12 01:31N 50°32' W 000°06'9 9.6
2017-Jan-12 00:33N 50°34' E 000°08'9 9.2
2017-Jan-11 23:33N 50°36' E 000°22'9 8.3
2017-Jan-11 22:32N 50°39' E 000°35'7 7.5
2017-Jan-11 21:33N 50°43' E 000°44'23 9.3
2017-Jan-11 19:04N 50°57' E 001°13'612.4
2017-Jan-11 18:34N 51°01' E 001°21'1313.1
2017-Jan-11 17:33N 51°09' E 001°37'1211.6
2017-Jan-11 16:33N 51°17' E 001°50'10 9.5
2017-Jan-11 15:33N 51°25' E 001°60'9 8.7
2017-Jan-11 14:33N 51°22' E 002°13'7 7.5
2017-Jan-11 13:33N 51°22' E 002°25'8 7.7
2017-Jan-11 12:33N 51°23' E 002°37'7 6.8
2017-Jan-11 11:33N 51°22' E 002°48'8 8.2
2017-Jan-11 10:33N 51°22' E 003°01'8 8.0
2017-Jan-11 09:33N 51°23' E 003°14'9 9.0
2017-Jan-11 08:33N 51°25' E 003°28'14 6.5
2017-Jan-11 06:24N 51°20' E 003°49'1 0.7
2017-Jan-11 05:32N 51°19' E 003°49'3 1.4
2017-Jan-11 03:30N 51°16' E 003°51'0 0.0
2017-Jan-11 02:33N 51°16' E 003°51'0 0.0
2017-Jan-11 01:30N 51°16' E 003°51'0 0.0
2017-Jan-11 00:31N 51°16' E 003°51'0 0.0
2017-Jan-10 21:18N 51°16' E 003°51'0 0.0
2017-Jan-10 20:33N 51°16' E 003°51'0 0.0
2017-Jan-10 19:33N 51°16' E 003°51'0 0.0
2017-Jan-10 18:27N 51°16' E 003°51'0 0.0
2017-Jan-10 16:18N 51°16' E 003°51'0 0.0
2017-Jan-10 15:33N 51°16' E 003°51'0 0.0
2017-Jan-10 14:33N 51°16' E 003°51'0 0.0
2017-Jan-10 13:33N 51°16' E 003°51'0 0.0
2017-Jan-10 12:33N 51°16' E 003°51'0 0.0
2017-Jan-10 11:33N 51°16' E 003°51'0 0.0
2017-Jan-10 10:33N 51°16' E 003°51'0 0.0
2017-Jan-10 09:33N 51°16' E 003°51'0 0.0
2017-Jan-10 08:33N 51°16' E 003°51'0 0.0
2017-Jan-10 07:33N 51°16' E 003°51'0 0.0
2017-Jan-10 06:33N 51°16' E 003°51'0 0.0
2017-Jan-10 05:33N 51°17' E 003°51'3 2.6
2017-Jan-10 04:29N 51°19' E 003°49'0 0.0
2017-Jan-10 03:29N 51°19' E 003°49'0 0.0
2017-Jan-10 02:23N 51°19' E 003°49'0 0.0
2017-Jan-10 01:29N 51°19' E 003°49'0 0.0
2017-Jan-10 00:29N 51°19' E 003°49'0 0.1
2017-Jan-09 23:33N 51°19' E 003°49'1 1.2
2017-Jan-09 22:33N 51°20' E 003°49'8 8.3
2017-Jan-09 21:33N 51°26' E 003°39'1111.3
2017-Jan-09 20:33N 51°24' E 003°22'1111.3
2017-Jan-09 19:33N 51°22' E 003°04'1111.3
2017-Jan-09 18:33N 51°21' E 002°46'10 9.9
2017-Jan-09 17:34N 51°22' E 002°30'9 9.3
2017-Jan-09 16:33N 51°18' E 002°17'9 9.3
2017-Jan-09 15:34N 51°13' E 002°04'9 8.6
2017-Jan-09 14:33N 51°08' E 001°52'9 8.9
2017-Jan-09 13:34N 51°02' E 001°42'10 9.6
2017-Jan-09 12:33N 50°55' E 001°31'67 9.5
2017-Jan-09 05:30N 50°20' E 000°02'99 8.8
2017-Jan-08 18:20N 50°17' W 002°33'810.1
2017-Jan-08 17:33N 50°16' W 002°45'1010.4
2017-Jan-08 16:33N 50°16' W 003°01'1010.4
2017-Jan-08 15:34N 50°13' W 003°17'  

Dump ship's entire track history